South Barrington, Illinois
Current Conditions -  °F | °C
As of 11:52 PM on Sunday 21 Dec 2014 (Local Time) from KPWK Reporting Station
Haze Haze  
Wind Chill: 24°   Ceiling: Unl
Heat Index: 32°   Visibility: 6mi
Dew Point: 27°   Wind: 9mph
Humidity: 82%   Direction: 160°SSE
Pressure: 30.03"   Gusts: NA
Location:  42.1512°N, 88.1636°W
Report Text: KPWK 220552Z AUTO 16008KT 6SM HZ FEW030 00/M03 A3003 RMK AO2 SLP175 T00001028 10022 20000 400280000 58008
Loading
Personal Weather Stations






























Interactive Weather Map New forecast layout! Learn more

10-Day Weather Forecast

Advertisements
Track Severe Weather on mobile